createdAt,value
2018-03-02T00:01:03.407Z,4.97
2018-03-02T00:03:30.965Z,4.93
2018-03-02T00:05:58.551Z,5.17
2018-03-02T00:08:26.100Z,5.50
2018-03-02T00:10:54.425Z,4.93
2018-03-02T00:13:22.013Z,4.53
2018-03-02T00:15:49.599Z,4.80
2018-03-02T00:18:17.927Z,4.90
2018-03-02T00:20:45.555Z,5.40
2018-03-02T00:23:13.109Z,5.57
2018-03-02T00:25:40.685Z,5.23
2018-03-02T00:28:08.291Z,5.63
2018-03-02T00:30:35.905Z,4.97
2018-03-02T00:33:03.599Z,5.90
2018-03-02T00:35:31.150Z,5.87
2018-03-02T00:37:58.721Z,5.40
2018-03-02T00:40:26.256Z,5.73
2018-03-02T00:42:53.894Z,4.97
2018-03-02T00:45:21.455Z,6.10
2018-03-02T00:47:49.032Z,5.47
2018-03-02T00:50:16.674Z,5.10
2018-03-02T00:52:44.305Z,5.07
2018-03-02T00:55:12.679Z,5.80
2018-03-02T00:57:40.375Z,4.90
2018-03-02T01:00:07.929Z,6.70
2018-03-02T01:02:35.528Z,5.37
2018-03-02T01:05:03.085Z,5.00
2018-03-02T01:07:30.703Z,5.60
2018-03-02T01:09:59.011Z,5.30
2018-03-02T01:12:26.584Z,5.23
2018-03-02T01:14:54.347Z,4.93
2018-03-02T01:17:21.900Z,5.43
2018-03-02T01:19:49.483Z,5.80
2018-03-02T01:22:17.133Z,4.40
2018-03-02T01:24:44.719Z,5.80
2018-03-02T01:27:12.294Z,5.37
2018-03-02T01:29:40.620Z,4.80
2018-03-02T01:32:08.193Z,5.07
2018-03-02T01:34:35.770Z,6.10
2018-03-02T01:37:03.363Z,6.20
2018-03-02T01:39:31.675Z,5.67
2018-03-02T01:41:59.265Z,5.93
2018-03-02T01:44:26.851Z,5.80
2018-03-02T01:46:55.165Z,4.97
2018-03-02T01:49:22.741Z,4.40
2018-03-02T01:51:50.311Z,5.27
2018-03-02T01:54:18.095Z,5.33
2018-03-02T01:56:45.660Z,5.20
2018-03-02T01:59:13.249Z,5.60
2018-03-02T02:01:40.799Z,6.00
2018-03-02T02:04:09.168Z,6.50
2018-03-02T02:06:37.535Z,5.17
2018-03-02T02:09:05.078Z,5.33
2018-03-02T02:11:32.658Z,5.97
2018-03-02T02:14:00.225Z,6.33
2018-03-02T02:16:28.581Z,5.20
2018-03-02T02:18:56.906Z,5.93
2018-03-02T02:21:24.486Z,5.40
2018-03-02T02:23:52.817Z,5.53
2018-03-02T02:26:21.229Z,6.03
2018-03-02T02:28:48.871Z,5.43
2018-03-02T02:31:17.233Z,6.20
2018-03-02T02:33:45.528Z,6.13
2018-03-02T02:36:13.835Z,6.43
2018-03-02T02:38:41.415Z,5.60
2018-03-02T02:41:08.972Z,5.30
2018-03-02T02:43:36.544Z,5.27
2018-03-02T02:46:04.098Z,7.27
2018-03-02T02:48:31.686Z,7.00
2018-03-02T02:51:00.162Z,6.10
2018-03-02T02:53:28.552Z,6.30
2018-03-02T02:55:56.974Z,5.93
2018-03-02T02:58:24.583Z,6.60
2018-03-02T03:00:52.936Z,7.00
2018-03-02T03:03:20.488Z,6.00
2018-03-02T03:05:48.114Z,7.10
2018-03-02T03:08:15.680Z,5.20
2018-03-02T03:10:43.286Z,6.60
2018-03-02T03:13:10.838Z,5.87
2018-03-02T03:15:38.386Z,5.70
2018-03-02T03:18:05.977Z,6.57
2018-03-02T03:20:33.575Z,5.60
2018-03-02T03:23:01.212Z,5.67
2018-03-02T03:25:29.569Z,6.10
2018-03-02T03:27:57.164Z,4.83
2018-03-02T03:30:24.721Z,5.53
2018-03-02T03:32:53.076Z,5.90
2018-03-02T03:35:20.776Z,6.83
2018-03-02T03:37:48.320Z,6.60
2018-03-02T03:40:16.692Z,6.20
2018-03-02T03:42:45.209Z,6.73
2018-03-02T03:45:12.874Z,6.87
2018-03-02T03:47:40.468Z,6.17
2018-03-02T03:50:08.026Z,5.47
2018-03-02T03:52:35.604Z,5.87
2018-03-02T03:55:03.966Z,5.70
2018-03-02T03:57:32.350Z,5.60
2018-03-02T03:59:59.910Z,6.07
2018-03-02T04:02:27.622Z,5.03
2018-03-02T04:04:55.171Z,5.60
2018-03-02T04:07:22.812Z,6.50
2018-03-02T04:09:50.363Z,5.53
2018-03-02T04:12:18.710Z,5.60
2018-03-02T04:14:46.338Z,7.00
2018-03-02T04:17:13.954Z,5.87
2018-03-02T04:19:41.496Z,5.77
2018-03-02T04:22:09.039Z,6.50
2018-03-02T04:24:36.840Z,6.77
2018-03-02T04:27:04.392Z,6.87
2018-03-02T04:29:31.935Z,6.97
2018-03-02T04:31:59.522Z,6.10
2018-03-02T04:34:27.070Z,6.07
2018-03-02T04:36:54.660Z,5.63
2018-03-02T04:39:23.010Z,6.10
2018-03-02T04:41:51.324Z,6.97
2018-03-02T04:44:19.032Z,6.73
2018-03-02T04:46:46.566Z,6.77
2018-03-02T04:49:14.117Z,6.73
2018-03-02T04:51:41.900Z,6.80
2018-03-02T04:54:09.442Z,5.67
2018-03-02T04:56:37.059Z,5.20
2018-03-02T04:59:05.512Z,5.67
2018-03-02T05:01:34.586Z,6.43
2018-03-02T05:04:02.183Z,6.27
2018-03-02T05:06:29.764Z,6.33
2018-03-02T05:08:58.101Z,6.70
2018-03-02T05:11:25.829Z,6.60
2018-03-02T05:13:53.370Z,6.63
2018-03-02T05:16:21.785Z,6.40
2018-03-02T05:18:49.373Z,6.30
2018-03-02T05:21:16.937Z,6.07
2018-03-02T05:23:44.527Z,6.70
2018-03-02T05:26:12.839Z,6.07
2018-03-02T05:28:40.393Z,6.73
2018-03-02T05:31:07.986Z,7.10
2018-03-02T05:33:35.587Z,7.20
2018-03-02T05:36:03.195Z,5.77
2018-03-02T05:38:30.747Z,6.60
2018-03-02T05:40:58.350Z,5.17
2018-03-02T05:43:25.898Z,6.13
2018-03-02T05:45:53.609Z,5.97
2018-03-02T05:48:21.348Z,6.53
2018-03-02T05:50:49.697Z,6.50
2018-03-02T05:53:17.341Z,5.90
2018-03-02T05:55:44.933Z,6.40
2018-03-02T05:58:12.541Z,5.63
2018-03-02T06:00:40.122Z,6.20
2018-03-02T06:03:08.071Z,5.77
2018-03-02T06:05:35.706Z,6.60
2018-03-02T06:08:04.039Z,5.70
2018-03-02T06:10:31.724Z,7.60
2018-03-02T06:12:59.357Z,5.83
2018-03-02T06:15:26.914Z,6.03
2018-03-02T06:17:54.457Z,6.40
2018-03-02T06:20:22.057Z,6.10
2018-03-02T06:22:49.643Z,5.80
2018-03-02T06:25:18.023Z,6.07
2018-03-02T06:27:46.362Z,5.47
2018-03-02T06:30:13.905Z,6.17
2018-03-02T06:32:41.505Z,6.50
2018-03-02T06:35:09.105Z,6.20
2018-03-02T06:37:37.221Z,6.20
2018-03-02T06:40:04.863Z,6.93
2018-03-02T06:42:32.419Z,5.63
2018-03-02T06:45:00.956Z,5.57
2018-03-02T06:47:29.355Z,6.17
2018-03-02T06:49:56.939Z,5.73
2018-03-02T06:52:24.682Z,6.17
2018-03-02T06:54:52.215Z,6.67
2018-03-02T06:57:20.578Z,8.00
2018-03-02T06:59:48.369Z,5.80
2018-03-02T07:02:15.906Z,7.80
2018-03-02T07:04:43.608Z,8.40
2018-03-02T07:07:11.157Z,7.37
2018-03-02T07:09:38.771Z,7.10
2018-03-02T07:12:06.358Z,7.60
2018-03-02T07:14:34.827Z,7.50
2018-03-02T07:17:02.359Z,8.10
2018-03-02T07:19:29.963Z,8.10
2018-03-02T07:21:58.319Z,9.23
2018-03-02T07:24:25.863Z,7.30
2018-03-02T07:26:53.426Z,7.93
2018-03-02T07:29:21.815Z,7.63
2018-03-02T07:31:49.343Z,6.70
2018-03-02T07:34:16.923Z,8.03
2018-03-02T07:36:44.486Z,7.33
2018-03-02T07:39:12.834Z,7.03
2018-03-02T07:41:40.600Z,7.23
2018-03-02T07:44:08.178Z,7.07
2018-03-02T07:46:35.764Z,7.50
2018-03-02T07:49:03.307Z,6.83
2018-03-02T07:51:30.989Z,7.17
2018-03-02T07:53:59.461Z,7.50
2018-03-02T07:56:26.982Z,7.50
2018-03-02T07:58:54.557Z,7.40
2018-03-02T08:01:22.342Z,7.30
2018-03-02T08:03:50.059Z,6.70
2018-03-02T08:06:17.723Z,7.43
2018-03-02T08:08:45.362Z,7.57
2018-03-02T08:11:12.971Z,6.97
2018-03-02T08:13:40.503Z,6.53
2018-03-02T08:16:08.184Z,6.70
2018-03-02T08:18:35.822Z,7.83
2018-03-02T08:21:03.390Z,7.43
2018-03-02T08:23:31.065Z,8.60
2018-03-02T08:25:58.664Z,7.57
2018-03-02T08:28:27.063Z,6.13
2018-03-02T08:30:54.704Z,8.37
2018-03-02T08:33:23.053Z,7.23
2018-03-02T08:35:50.684Z,5.87
2018-03-02T08:38:18.266Z,7.30
2018-03-02T08:40:45.817Z,5.73
2018-03-02T08:43:13.404Z,7.33
2018-03-02T08:45:40.963Z,7.70
2018-03-02T08:48:08.543Z,7.00
2018-03-02T08:50:36.851Z,7.20
2018-03-02T08:53:05.215Z,5.80
2018-03-02T08:55:32.797Z,6.33
2018-03-02T08:58:00.549Z,6.63
2018-03-02T09:00:28.115Z,6.97
2018-03-02T09:02:55.658Z,6.97
2018-03-02T09:05:24.018Z,6.43
2018-03-02T09:07:51.606Z,6.43
2018-03-02T09:10:19.178Z,6.20
2018-03-02T09:12:46.760Z,6.60
2018-03-02T09:15:14.358Z,6.87
2018-03-02T09:17:42.880Z,7.13
2018-03-02T09:20:10.466Z,8.17
2018-03-02T09:22:38.205Z,6.20
2018-03-02T09:25:05.772Z,6.50
2018-03-02T09:27:33.328Z,5.60
2018-03-02T09:30:01.018Z,6.30
2018-03-02T09:32:28.596Z,6.80
2018-03-02T09:34:56.172Z,5.90
2018-03-02T09:37:24.542Z,6.67
2018-03-02T09:39:52.097Z,7.90
2018-03-02T09:42:20.475Z,6.80
2018-03-02T09:44:48.049Z,7.13
2018-03-02T09:47:16.398Z,6.57
2018-03-02T09:49:44.814Z,6.83
2018-03-02T09:52:13.152Z,6.10
2018-03-02T09:54:40.781Z,6.30
2018-03-02T09:57:08.367Z,5.67
2018-03-02T09:59:35.935Z,6.20
2018-03-02T10:02:03.526Z,6.80
2018-03-02T10:04:31.873Z,6.57
2018-03-02T10:06:59.684Z,6.27
2018-03-02T10:09:27.236Z,5.40
2018-03-02T10:11:55.546Z,6.20
2018-03-02T10:14:23.144Z,5.57
2018-03-02T10:19:25.502Z,6.83
2018-03-02T10:21:53.112Z,6.50
2018-03-02T10:24:21.458Z,6.67
2018-03-02T10:26:49.015Z,6.60
2018-03-02T10:29:16.606Z,6.07
2018-03-02T10:31:44.146Z,6.90
2018-03-02T10:34:11.719Z,7.10
2018-03-02T10:36:39.286Z,5.93
2018-03-02T10:39:07.668Z,5.63
2018-03-02T10:41:36.069Z,6.03
2018-03-02T10:44:03.648Z,5.97
2018-03-02T10:46:31.226Z,5.30
2018-03-02T10:48:58.762Z,5.90
2018-03-02T10:51:26.370Z,6.40
2018-03-02T10:53:53.916Z,6.50
2018-03-02T10:56:21.488Z,5.93
2018-03-02T10:58:49.025Z,5.23
2018-03-02T11:01:22.311Z,6.40
2018-03-02T11:03:49.898Z,5.70
2018-03-02T11:06:17.651Z,7.77
2018-03-02T11:08:45.233Z,6.50
2018-03-02T11:11:12.880Z,6.47
2018-03-02T11:13:41.268Z,5.63
2018-03-02T11:16:08.822Z,6.27
2018-03-02T11:18:36.398Z,6.47
2018-03-02T11:21:04.770Z,5.43
2018-03-02T11:23:32.392Z,6.17
2018-03-02T11:26:00.084Z,6.27
2018-03-02T11:28:27.658Z,6.80
2018-03-02T11:30:56.028Z,5.30
2018-03-02T11:33:25.108Z,5.93
2018-03-02T11:35:52.670Z,5.57
2018-03-02T11:38:20.262Z,5.77
2018-03-02T11:40:48.580Z,5.30
2018-03-02T11:43:16.596Z,5.27
2018-03-02T11:45:44.136Z,5.90
2018-03-02T11:48:11.702Z,8.33
2018-03-02T11:50:39.326Z,4.50
2018-03-02T11:53:06.892Z,6.10
2018-03-02T11:55:34.455Z,6.20
2018-03-02T11:58:02.285Z,6.60
2018-03-02T12:00:30.604Z,5.50
2018-03-02T12:02:58.188Z,5.10
2018-03-02T12:05:25.798Z,5.00
2018-03-02T12:07:54.308Z,5.90
2018-03-02T12:10:21.952Z,5.37
2018-03-02T12:12:49.678Z,5.47
2018-03-02T12:15:17.986Z,5.70
2018-03-02T12:17:45.586Z,5.83
2018-03-02T12:20:13.202Z,5.27
2018-03-02T12:22:40.921Z,5.40
2018-03-02T12:25:09.408Z,6.67
2018-03-02T12:27:37.010Z,6.67
2018-03-02T12:30:05.380Z,5.47
2018-03-02T12:32:33.004Z,6.37
2018-03-02T12:35:00.582Z,6.13
2018-03-02T12:37:28.960Z,6.13
2018-03-02T12:39:57.273Z,5.80
2018-03-02T12:42:24.927Z,5.50
2018-03-02T12:44:52.457Z,5.57
2018-03-02T12:47:20.760Z,6.47
2018-03-02T12:49:48.348Z,6.13
2018-03-02T12:52:15.950Z,5.90
2018-03-02T12:54:44.362Z,6.53
2018-03-02T12:57:11.976Z,6.17
2018-03-02T12:59:39.514Z,6.37
2018-03-02T13:02:07.261Z,6.67
2018-03-02T13:04:34.936Z,6.10
2018-03-02T13:07:02.547Z,5.93
2018-03-02T13:09:31.011Z,6.20
2018-03-02T13:11:59.637Z,6.60
2018-03-02T13:14:27.195Z,5.77
2018-03-02T13:16:54.767Z,6.10
2018-03-02T13:19:22.452Z,6.03
2018-03-02T13:21:50.788Z,6.37
2018-03-02T13:24:18.349Z,6.30
2018-03-02T13:26:57.884Z,5.77
2018-03-02T13:29:26.414Z,6.43
2018-03-02T13:31:54.137Z,5.93
2018-03-02T13:34:33.661Z,5.30
2018-03-02T13:37:01.210Z,5.57
2018-03-02T13:39:41.605Z,6.50
2018-03-02T13:42:10.923Z,5.90
2018-03-02T13:44:38.519Z,6.50
2018-03-02T13:47:06.889Z,5.77
2018-03-02T13:49:46.364Z,4.97
2018-03-02T13:52:13.975Z,6.30
2018-03-02T13:54:41.538Z,6.40
2018-03-02T13:57:21.123Z,5.80
2018-03-02T13:59:48.699Z,6.43
2018-03-02T14:02:28.307Z,5.77
2018-03-02T14:05:02.659Z,5.67
2018-03-02T14:07:30.679Z,5.87
2018-03-02T14:09:58.436Z,6.00
2018-03-02T14:12:26.050Z,5.77
2018-03-02T14:14:53.729Z,5.77
2018-03-02T14:17:21.313Z,6.10
2018-03-02T14:19:48.931Z,6.50
2018-03-02T14:22:16.503Z,6.43
2018-03-02T14:24:44.207Z,6.70
2018-03-02T14:27:11.807Z,6.93
2018-03-02T14:29:39.409Z,5.20
2018-03-02T14:32:06.984Z,5.80
2018-03-02T14:34:34.537Z,6.17
2018-03-02T14:37:02.916Z,5.67
2018-03-02T14:39:30.500Z,5.60
2018-03-02T14:41:58.188Z,5.83
2018-03-02T14:44:26.609Z,5.60
2018-03-02T14:46:54.167Z,5.97
2018-03-02T14:49:22.825Z,4.87
2018-03-02T14:51:50.429Z,5.57
2018-03-02T14:54:18.092Z,5.37
2018-03-02T14:56:45.651Z,5.37
2018-03-02T14:59:13.779Z,6.47
2018-03-02T15:01:41.812Z,5.23
2018-03-02T15:04:09.655Z,5.37
2018-03-02T15:06:37.255Z,6.10
2018-03-02T15:09:04.960Z,5.83
2018-03-02T15:11:33.482Z,5.43
2018-03-02T15:14:01.094Z,5.07
2018-03-02T15:16:28.688Z,4.50
2018-03-02T15:18:56.281Z,4.53
2018-03-02T15:21:24.648Z,5.40
2018-03-02T15:23:52.239Z,5.40
2018-03-02T15:26:19.826Z,4.60
2018-03-02T15:28:47.404Z,4.53
2018-03-02T15:31:16.464Z,4.80
2018-03-02T15:33:44.047Z,5.00
2018-03-02T15:36:11.642Z,6.03
2018-03-02T15:38:39.967Z,5.80
2018-03-02T15:41:07.588Z,4.90
2018-03-02T15:43:35.364Z,4.70
2018-03-02T15:46:03.722Z,5.80
2018-03-02T15:48:31.343Z,4.90
2018-03-02T15:50:59.096Z,5.50
2018-03-02T15:53:26.669Z,5.27
2018-03-02T15:55:55.156Z,6.17
2018-03-02T15:58:22.774Z,9.00
2018-03-02T16:00:50.338Z,10.17
2018-03-02T16:03:18.142Z,12.67
2018-03-02T16:05:45.751Z,15.03
2018-03-02T16:08:14.098Z,16.40
2018-03-02T16:10:41.668Z,15.57
2018-03-02T16:13:10.092Z,16.00
2018-03-02T16:15:37.656Z,17.30
2018-03-02T16:18:05.214Z,16.93
2018-03-02T16:20:32.820Z,19.30
2018-03-02T16:23:00.422Z,18.37
2018-03-02T16:25:28.010Z,16.10
2018-03-02T16:27:55.646Z,17.23
2018-03-02T16:30:23.250Z,18.40
2018-03-02T16:32:50.820Z,15.50
2018-03-02T16:35:21.571Z,16.70
2018-03-02T16:37:50.106Z,18.90
2018-03-02T16:40:18.003Z,15.47
2018-03-02T16:42:45.606Z,17.93
2018-03-02T16:45:14.054Z,15.07
2018-03-02T16:47:42.256Z,14.60
2018-03-02T16:50:09.900Z,14.40
2018-03-02T16:52:37.502Z,12.53
2018-03-02T16:55:05.144Z,13.97
2018-03-02T16:57:32.750Z,14.90
2018-03-02T17:00:00.467Z,15.50
2018-03-02T17:02:28.091Z,15.63
2018-03-02T17:04:56.401Z,13.17
2018-03-02T17:07:24.021Z,13.17
2018-03-02T17:09:51.654Z,12.80
2018-03-02T17:12:19.250Z,12.50
2018-03-02T17:14:47.590Z,13.07
2018-03-02T17:17:15.197Z,14.00
2018-03-02T17:19:43.514Z,11.57
2018-03-02T17:22:11.109Z,12.17
2018-03-02T17:24:38.701Z,11.90
2018-03-02T17:27:07.190Z,14.10
2018-03-02T17:29:34.792Z,12.40
2018-03-02T17:32:02.395Z,12.70
2018-03-02T17:34:30.738Z,14.27
2018-03-02T17:36:58.350Z,12.97
2018-03-02T17:39:25.907Z,13.73
2018-03-02T17:41:53.547Z,13.10
2018-03-02T17:44:21.894Z,13.43
2018-03-02T17:46:49.474Z,11.83
2018-03-02T17:49:17.056Z,11.73
2018-03-02T17:51:45.465Z,11.00
2018-03-02T17:54:13.079Z,12.30
2018-03-02T17:56:40.669Z,10.40
2018-03-02T17:59:08.236Z,10.30
2018-03-02T18:01:35.859Z,9.57
2018-03-02T18:04:03.436Z,10.00
2018-03-02T18:06:31.817Z,10.03
2018-03-02T18:08:59.381Z,11.30
2018-03-02T18:11:27.029Z,10.17
2018-03-02T18:13:55.445Z,10.07
2018-03-02T18:16:23.078Z,11.13
2018-03-02T18:18:51.552Z,10.80
2018-03-02T18:21:19.896Z,11.03
2018-03-02T18:23:47.517Z,10.00
2018-03-02T18:26:15.087Z,9.53
2018-03-02T18:28:42.696Z,9.03
2018-03-02T18:31:11.800Z,10.20
2018-03-02T18:33:40.179Z,9.00
2018-03-02T18:36:08.605Z,10.13
2018-03-02T18:38:36.427Z,9.60
2018-03-02T18:41:05.671Z,9.57
2018-03-02T18:43:33.949Z,9.37
2018-03-02T18:46:01.654Z,8.97
2018-03-02T18:48:29.293Z,10.27
2018-03-02T18:50:56.918Z,9.30
2018-03-02T18:53:24.517Z,9.47
2018-03-02T18:55:52.183Z,8.10
2018-03-02T18:58:19.767Z,8.47
2018-03-02T19:00:48.160Z,8.47
2018-03-02T19:03:16.505Z,8.97
2018-03-02T19:05:44.815Z,8.90
2018-03-02T19:08:13.321Z,9.07
2018-03-02T19:10:40.982Z,9.13
2018-03-02T19:13:08.597Z,7.73
2018-03-02T19:15:36.233Z,8.70
2018-03-02T19:18:03.950Z,9.63
2018-03-02T19:20:31.639Z,9.50
2018-03-02T19:22:59.245Z,7.67
2018-03-02T19:25:28.333Z,7.80
2018-03-02T19:27:56.017Z,8.33
2018-03-02T19:30:24.362Z,8.20
2018-03-02T19:32:52.141Z,7.23
2018-03-02T19:35:19.909Z,7.27
2018-03-02T19:37:48.371Z,8.63
2018-03-02T19:40:15.954Z,6.87
2018-03-02T19:42:44.294Z,8.60
2018-03-02T19:45:11.855Z,8.10
2018-03-02T19:47:39.487Z,7.33
2018-03-02T19:50:07.153Z,7.37
2018-03-02T19:52:34.760Z,8.03
2018-03-02T19:55:02.947Z,7.77
2018-03-02T19:57:31.731Z,7.30
2018-03-02T20:00:00.009Z,7.33
2018-03-02T20:02:27.850Z,8.10
2018-03-02T20:04:55.493Z,7.93
2018-03-02T20:07:23.347Z,7.10
2018-03-02T20:09:51.157Z,7.40
2018-03-02T20:12:19.910Z,6.57
2018-03-02T20:14:47.562Z,6.43
2018-03-02T20:17:15.168Z,6.87
2018-03-02T20:19:42.781Z,7.20
2018-03-02T20:22:10.423Z,7.13
2018-03-02T20:24:38.762Z,6.63
2018-03-02T20:27:06.423Z,6.50
2018-03-02T20:29:34.948Z,6.93
2018-03-02T20:32:03.476Z,7.77
2018-03-02T20:34:31.089Z,6.20
2018-03-02T20:36:58.748Z,6.47
2018-03-02T20:39:27.121Z,6.40
2018-03-02T20:41:55.513Z,7.27
2018-03-02T20:44:23.268Z,7.97
2018-03-02T20:46:51.682Z,6.90
2018-03-02T20:49:19.354Z,6.17
2018-03-02T20:51:47.026Z,6.30
2018-03-02T20:54:14.708Z,5.97
2018-03-02T20:56:42.356Z,6.67
2018-03-02T20:59:09.964Z,7.00
2018-03-02T21:01:37.621Z,6.50
2018-03-02T21:04:06.090Z,7.07
2018-03-02T21:06:34.449Z,6.93
2018-03-02T21:09:02.073Z,8.30
2018-03-02T21:11:29.703Z,6.47
2018-03-02T21:13:57.553Z,6.87
2018-03-02T21:16:25.911Z,7.77
2018-03-02T21:18:53.512Z,6.93
2018-03-02T21:21:21.588Z,5.83
2018-03-02T21:23:49.194Z,6.60
2018-03-02T21:26:16.788Z,6.23
2018-03-02T21:28:45.170Z,7.30
2018-03-02T21:31:13.513Z,6.07
2018-03-02T21:33:41.458Z,5.93
2018-03-02T21:36:09.053Z,6.87
2018-03-02T21:38:36.769Z,5.60
2018-03-02T21:41:05.278Z,6.90
2018-03-02T21:43:32.892Z,8.03
2018-03-02T21:46:00.580Z,6.20
2018-03-02T21:48:28.168Z,5.83
2018-03-02T21:50:55.798Z,7.20
2018-03-02T21:53:23.431Z,5.77
2018-03-02T21:55:51.786Z,5.87
2018-03-02T21:58:19.414Z,6.47
2018-03-02T22:00:48.026Z,6.30
2018-03-02T22:03:15.628Z,5.70
2018-03-02T22:05:43.259Z,5.63
2018-03-02T22:08:11.144Z,6.67
2018-03-02T22:10:38.746Z,6.00
2018-03-02T22:13:06.330Z,5.90
2018-03-02T22:15:34.931Z,6.23
2018-03-02T22:18:02.498Z,6.20
2018-03-02T22:20:30.879Z,6.20
2018-03-02T22:22:59.412Z,6.53
2018-03-02T22:25:27.003Z,5.93
2018-03-02T22:27:54.574Z,5.77
2018-03-02T22:30:22.384Z,5.53
2018-03-02T22:32:50.009Z,6.95
2018-03-02T22:35:18.362Z,5.90
2018-03-02T22:37:45.924Z,6.13
2018-03-02T22:40:13.541Z,6.20
2018-03-02T22:42:41.905Z,7.03
2018-03-02T22:45:09.470Z,6.30
2018-03-02T22:47:37.060Z,5.03
2018-03-02T22:50:05.533Z,6.97
2018-03-02T22:52:33.104Z,5.80
2018-03-02T22:55:00.746Z,5.93
2018-03-02T22:57:28.348Z,6.47
2018-03-02T22:59:55.898Z,5.90
2018-03-02T23:02:25.064Z,5.53
2018-03-02T23:04:52.660Z,5.30
2018-03-02T23:07:20.206Z,6.40
2018-03-02T23:09:47.788Z,6.10
2018-03-02T23:12:15.878Z,6.37
2018-03-02T23:14:44.213Z,6.30
2018-03-02T23:17:11.796Z,6.13
2018-03-02T23:19:39.381Z,4.90
2018-03-02T23:22:07.739Z,5.17
2018-03-02T23:24:35.305Z,6.00
2018-03-02T23:27:03.626Z,7.40
2018-03-02T23:29:31.318Z,7.77
2018-03-02T23:31:58.888Z,5.97
2018-03-02T23:34:26.486Z,5.77
2018-03-02T23:36:54.065Z,6.57
2018-03-02T23:39:21.644Z,5.93
2018-03-02T23:41:49.214Z,4.90
2018-03-02T23:44:16.874Z,5.90
2018-03-02T23:46:44.443Z,6.10
2018-03-02T23:49:12.026Z,6.37
2018-03-02T23:51:40.344Z,7.00
2018-03-02T23:54:08.017Z,7.17
2018-03-02T23:56:35.614Z,5.40
2018-03-02T23:59:03.168Z,5.93
